createdAt,value
2019-03-21T00:01:40.121Z,4.95
2019-03-21T00:04:13.244Z,5.83
2019-03-21T00:06:44.169Z,6.55
2019-03-21T00:09:17.227Z,5.62
2019-03-21T00:12:07.532Z,6.67
2019-03-21T00:15:12.510Z,7.05
2019-03-21T00:17:57.246Z,5.50
2019-03-21T00:20:28.178Z,5.30
2019-03-21T00:22:59.090Z,4.80
2019-03-21T00:25:30.850Z,5.12
2019-03-21T00:28:01.760Z,5.42
2019-03-21T00:30:32.692Z,4.78
2019-03-21T00:33:03.716Z,5.40
2019-03-21T00:35:34.688Z,4.72
2019-03-21T00:38:05.673Z,4.58
2019-03-21T00:40:38.904Z,4.40
2019-03-21T00:43:11.161Z,4.85
2019-03-21T00:45:42.089Z,4.97
2019-03-21T00:48:14.814Z,6.70
2019-03-21T00:50:45.741Z,5.75
2019-03-21T00:53:16.649Z,5.75
2019-03-21T00:55:48.177Z,6.40
2019-03-21T00:58:19.080Z,4.80
2019-03-21T01:00:52.377Z,4.40
2019-03-21T01:03:23.271Z,4.92
2019-03-21T01:05:54.202Z,5.00
2019-03-21T01:08:25.130Z,4.95
2019-03-21T01:10:56.087Z,4.37
2019-03-21T01:13:29.717Z,3.70
2019-03-21T01:16:00.648Z,4.12
2019-03-21T01:18:31.647Z,3.47
2019-03-21T01:21:02.632Z,4.47
2019-03-21T01:23:33.585Z,5.33
2019-03-21T01:26:04.587Z,4.20
2019-03-21T01:28:35.507Z,4.33
2019-03-21T01:31:06.434Z,4.00
2019-03-21T01:33:37.376Z,4.05
2019-03-21T01:36:08.341Z,4.12
2019-03-21T01:38:39.277Z,4.65
2019-03-21T01:41:10.213Z,4.85
2019-03-21T01:43:41.161Z,4.42
2019-03-21T01:46:12.641Z,4.25
2019-03-21T01:48:43.608Z,4.37
2019-03-21T01:51:14.618Z,3.85
2019-03-21T01:53:45.560Z,4.15
2019-03-21T01:56:16.488Z,4.72
2019-03-21T01:58:47.429Z,3.70
2019-03-21T02:01:18.425Z,3.67
2019-03-21T02:03:49.350Z,4.10
2019-03-21T02:06:20.252Z,3.58
2019-03-21T02:08:51.176Z,4.58
2019-03-21T02:11:22.078Z,3.83
2019-03-21T02:13:53.005Z,3.90
2019-03-21T02:16:23.913Z,3.77
2019-03-21T02:18:54.856Z,4.12
2019-03-21T02:21:25.761Z,3.52
2019-03-21T02:23:56.876Z,4.17
2019-03-21T02:26:27.795Z,3.50
2019-03-21T02:28:58.737Z,3.35
2019-03-21T02:31:29.663Z,3.65
2019-03-21T02:34:00.674Z,3.95
2019-03-21T02:36:31.607Z,4.47
2019-03-21T02:39:02.565Z,4.20
2019-03-21T02:41:33.454Z,3.90
2019-03-21T02:44:04.562Z,3.77
2019-03-21T02:46:35.456Z,3.42
2019-03-21T02:49:06.378Z,3.52
2019-03-21T02:51:37.307Z,4.42
2019-03-21T02:54:08.269Z,3.08
2019-03-21T02:56:39.183Z,3.70
2019-03-21T02:59:10.110Z,3.37
2019-03-21T03:01:41.014Z,3.30
2019-03-21T03:04:11.939Z,4.05
2019-03-21T03:06:42.847Z,3.72
2019-03-21T03:09:13.793Z,3.98
2019-03-21T03:11:44.691Z,3.50
2019-03-21T03:14:38.166Z,3.80
2019-03-21T03:17:09.087Z,2.98
2019-03-21T03:19:39.992Z,3.67
2019-03-21T03:22:10.952Z,4.10
2019-03-21T03:24:41.902Z,4.67
2019-03-21T03:27:12.796Z,3.45
2019-03-21T03:29:43.722Z,3.70
2019-03-21T03:32:14.638Z,3.42
2019-03-21T03:34:45.629Z,4.17
2019-03-21T03:37:16.683Z,3.62
2019-03-21T03:39:47.590Z,4.45
2019-03-21T03:42:18.512Z,5.60
2019-03-21T03:44:49.406Z,4.20
2019-03-21T03:47:20.327Z,4.67
2019-03-21T03:49:51.218Z,3.92
2019-03-21T03:52:22.212Z,4.12
2019-03-21T03:54:53.235Z,4.30
2019-03-21T03:57:24.157Z,3.90
2019-03-21T03:59:55.062Z,4.45
2019-03-21T04:02:25.993Z,5.05
2019-03-21T04:04:57.237Z,3.60
2019-03-21T04:07:28.230Z,4.47
2019-03-21T04:09:59.139Z,3.95
2019-03-21T04:12:30.211Z,19.60
2019-03-21T04:15:01.122Z,14.70
2019-03-21T04:17:32.058Z,4.20
2019-03-21T04:20:02.967Z,5.50
2019-03-21T04:22:34.270Z,4.22
2019-03-21T04:25:05.250Z,5.95
2019-03-21T04:27:36.276Z,5.50
2019-03-21T04:30:08.875Z,5.53
2019-03-21T04:32:39.828Z,5.15
2019-03-21T04:35:11.643Z,5.60
2019-03-21T04:37:42.583Z,4.35
2019-03-21T04:40:13.964Z,5.90
2019-03-21T04:42:44.881Z,5.45
2019-03-21T04:45:17.981Z,5.25
2019-03-21T04:47:48.903Z,4.95
2019-03-21T04:50:22.317Z,4.60
2019-03-21T04:52:53.230Z,4.60
2019-03-21T04:55:24.122Z,4.40
2019-03-21T04:57:55.077Z,4.15
2019-03-21T05:00:28.286Z,4.25
2019-03-21T05:03:00.493Z,4.67
2019-03-21T05:05:31.434Z,5.45
2019-03-21T05:08:02.401Z,3.90
2019-03-21T05:10:33.349Z,4.50
2019-03-21T05:13:04.614Z,5.10
2019-03-21T05:15:37.675Z,4.58
2019-03-21T05:18:11.794Z,4.25
2019-03-21T05:20:42.840Z,5.03
2019-03-21T05:23:13.747Z,4.58
2019-03-21T05:25:44.666Z,4.60
2019-03-21T05:28:15.657Z,4.30
2019-03-21T05:30:53.049Z,4.28
2019-03-21T05:33:23.966Z,4.35
2019-03-21T05:35:54.961Z,4.12
2019-03-21T05:38:26.458Z,4.45
2019-03-21T05:40:57.362Z,4.10
2019-03-21T05:43:32.150Z,4.30
2019-03-21T05:46:04.184Z,4.40
2019-03-21T05:48:35.078Z,4.62
2019-03-21T05:51:06.034Z,5.25
2019-03-21T05:53:36.932Z,4.37
2019-03-21T05:56:08.258Z,5.10
2019-03-21T05:58:39.236Z,4.65
2019-03-21T06:01:10.190Z,4.70
2019-03-21T06:03:51.142Z,4.17
2019-03-21T06:06:52.501Z,4.33
2019-03-21T06:09:23.434Z,4.08
2019-03-21T06:11:57.033Z,5.30
2019-03-21T06:14:28.793Z,4.65
2019-03-21T06:16:59.845Z,6.20
2019-03-21T06:20:13.180Z,5.28
2019-03-21T06:23:19.685Z,4.78
2019-03-21T06:26:21.771Z,5.45
2019-03-21T06:28:52.705Z,5.40
2019-03-21T06:31:23.686Z,4.78
2019-03-21T06:33:54.587Z,4.58
2019-03-21T06:36:25.534Z,4.10
2019-03-21T06:38:56.447Z,5.05
2019-03-21T06:41:28.502Z,5.47
2019-03-21T06:43:59.422Z,4.92
2019-03-21T06:46:30.362Z,4.50
2019-03-21T06:49:01.241Z,4.72
2019-03-21T06:51:32.178Z,4.62
2019-03-21T06:54:04.673Z,5.35
2019-03-21T06:56:35.599Z,5.12
2019-03-21T06:59:06.509Z,4.70
2019-03-21T07:01:37.426Z,4.90
2019-03-21T07:04:08.326Z,5.80
2019-03-21T07:06:39.243Z,5.40
2019-03-21T07:09:10.276Z,5.37
2019-03-21T07:11:41.374Z,5.12
2019-03-21T07:14:12.314Z,4.62
2019-03-21T07:16:43.278Z,5.95
2019-03-21T07:19:14.234Z,3.67
2019-03-21T07:21:45.154Z,3.50
2019-03-21T07:24:16.088Z,3.33
2019-03-21T07:26:46.983Z,2.90
2019-03-21T07:29:17.922Z,3.25
2019-03-21T07:31:48.843Z,4.22
2019-03-21T07:34:19.793Z,3.27
2019-03-21T07:36:50.714Z,2.85
2019-03-21T07:39:21.672Z,3.00
2019-03-21T07:41:55.074Z,3.42
2019-03-21T07:44:26.026Z,2.92
2019-03-21T07:46:56.919Z,2.58
2019-03-21T07:49:27.865Z,3.37
2019-03-21T07:51:58.909Z,3.42
2019-03-21T07:54:29.833Z,3.30
2019-03-21T07:57:00.716Z,2.80
2019-03-21T07:59:31.642Z,2.55
2019-03-21T08:02:02.646Z,2.95
2019-03-21T08:04:33.597Z,3.05
2019-03-21T08:07:04.532Z,2.72
2019-03-21T08:09:35.482Z,2.87
2019-03-21T08:12:06.463Z,2.80
2019-03-21T08:14:37.450Z,2.50
2019-03-21T08:17:08.370Z,2.92
2019-03-21T08:19:39.302Z,2.70
2019-03-21T08:22:10.305Z,2.40
2019-03-21T08:24:41.345Z,2.13
2019-03-21T08:27:12.262Z,2.70
2019-03-21T08:29:43.277Z,2.73
2019-03-21T08:32:14.266Z,2.43
2019-03-21T08:34:45.221Z,2.50
2019-03-21T08:37:16.221Z,2.23
2019-03-21T08:39:50.365Z,2.40
2019-03-21T08:42:21.335Z,3.43
2019-03-21T08:44:52.230Z,2.63
2019-03-21T08:47:23.271Z,2.23
2019-03-21T08:49:54.213Z,2.63
2019-03-21T08:52:25.189Z,2.30
2019-03-21T08:54:56.106Z,2.20
2019-03-21T08:57:27.041Z,2.30
2019-03-21T08:59:57.990Z,2.03
2019-03-21T09:02:28.933Z,2.07
2019-03-21T09:05:00.011Z,2.60
2019-03-21T09:07:31.120Z,2.00
2019-03-21T09:10:02.020Z,2.70
2019-03-21T09:12:33.923Z,1.87
2019-03-21T09:15:05.034Z,2.20
2019-03-21T09:17:35.977Z,2.10
2019-03-21T09:20:07.558Z,2.43
2019-03-21T09:22:39.109Z,2.10
2019-03-21T09:25:10.263Z,2.77
2019-03-21T09:27:41.229Z,2.50
2019-03-21T09:30:12.354Z,2.17
2019-03-21T09:32:43.304Z,2.37
2019-03-21T09:35:14.336Z,2.07
2019-03-21T09:37:45.352Z,2.50
2019-03-21T09:40:16.294Z,2.07
2019-03-21T09:42:47.255Z,2.30
2019-03-21T09:45:18.176Z,2.23
2019-03-21T09:47:49.112Z,2.67
2019-03-21T09:50:27.755Z,2.70
2019-03-21T09:52:58.823Z,2.60
2019-03-21T09:55:29.823Z,3.67
2019-03-21T09:58:00.766Z,2.40
2019-03-21T10:00:33.555Z,2.50
2019-03-21T10:03:05.262Z,2.40
2019-03-21T10:05:36.183Z,2.20
2019-03-21T10:08:07.477Z,2.97
2019-03-21T10:10:38.458Z,2.50
2019-03-21T10:13:09.474Z,2.70
2019-03-21T10:15:40.401Z,3.10
2019-03-21T10:18:11.366Z,3.20
2019-03-21T10:20:42.308Z,3.07
2019-03-21T10:23:13.259Z,2.63
2019-03-21T10:25:44.232Z,2.50
2019-03-21T10:28:15.172Z,3.30
2019-03-21T10:30:46.070Z,3.00
2019-03-21T10:33:17.265Z,3.20
2019-03-21T10:35:48.245Z,3.47
2019-03-21T10:38:19.152Z,3.23
2019-03-21T10:40:53.898Z,3.40
2019-03-21T10:43:24.818Z,2.77
2019-03-21T10:45:55.770Z,2.83
2019-03-21T10:48:26.694Z,2.53
2019-03-21T10:50:57.638Z,2.73
2019-03-21T10:53:28.703Z,3.10
2019-03-21T10:55:59.630Z,2.70
2019-03-21T10:58:30.564Z,2.53
2019-03-21T11:01:01.483Z,2.30
2019-03-21T11:03:32.420Z,2.20
2019-03-21T11:06:03.432Z,2.53
2019-03-21T11:08:34.337Z,3.23
2019-03-21T11:11:05.281Z,2.20
2019-03-21T11:13:36.213Z,2.87
2019-03-21T11:16:07.190Z,3.10
2019-03-21T11:18:38.139Z,3.13
2019-03-21T11:21:09.066Z,2.07
2019-03-21T11:23:39.983Z,2.40
2019-03-21T11:26:10.930Z,2.53
2019-03-21T11:28:41.842Z,3.20
2019-03-21T11:31:12.782Z,2.23
2019-03-21T11:33:43.718Z,2.97
2019-03-21T11:36:14.759Z,2.80
2019-03-21T11:38:45.689Z,2.73
2019-03-21T11:41:16.645Z,3.23
2019-03-21T11:43:47.555Z,2.90
2019-03-21T11:46:18.451Z,2.10
2019-03-21T11:48:49.368Z,2.17
2019-03-21T11:51:20.323Z,2.13
2019-03-21T11:53:51.345Z,2.00
2019-03-21T11:56:22.387Z,2.30
2019-03-21T11:58:53.401Z,2.03
2019-03-21T12:01:24.349Z,2.03
2019-03-21T12:03:55.335Z,2.40
2019-03-21T12:06:26.274Z,2.40
2019-03-21T12:08:57.226Z,2.03
2019-03-21T12:11:28.130Z,2.10
2019-03-21T12:13:59.082Z,2.20
2019-03-21T12:16:30.083Z,2.60
2019-03-21T12:19:01.046Z,2.63
2019-03-21T12:21:31.965Z,2.20
2019-03-21T12:24:02.897Z,2.30
2019-03-21T12:26:33.837Z,2.30
2019-03-21T12:29:04.780Z,2.70
2019-03-21T12:31:35.679Z,2.23
2019-03-21T12:34:06.611Z,2.40
2019-03-21T12:36:37.528Z,2.60
2019-03-21T12:39:09.895Z,2.47
2019-03-21T12:41:40.820Z,2.50
2019-03-21T12:44:11.749Z,2.80
2019-03-21T12:46:42.672Z,2.50
2019-03-21T12:49:13.639Z,2.50
2019-03-21T12:54:17.170Z,2.50
2019-03-21T12:56:48.091Z,2.90
2019-03-21T12:59:19.085Z,2.77
2019-03-21T13:01:49.983Z,2.90
2019-03-21T13:04:20.899Z,3.37
2019-03-21T13:06:51.817Z,3.13
2019-03-21T13:07:13.279Z,2.53
2019-03-21T13:09:23.859Z,2.60
2019-03-21T13:11:54.768Z,2.60
2019-03-21T13:14:25.690Z,2.67
2019-03-21T13:16:56.602Z,2.20
2019-03-21T13:19:27.525Z,2.30
2019-03-21T13:21:58.458Z,3.07
2019-03-21T13:24:29.411Z,2.80
2019-03-21T13:27:00.455Z,2.73
2019-03-21T13:29:31.453Z,2.30
2019-03-21T13:32:02.382Z,2.37
2019-03-21T13:34:33.293Z,2.03
2019-03-21T13:37:04.261Z,3.03
2019-03-21T13:39:35.174Z,11.20
2019-03-21T13:42:06.117Z,2.60
2019-03-21T13:44:37.017Z,2.67
2019-03-21T13:47:07.937Z,2.60
2019-03-21T13:49:38.842Z,2.20
2019-03-21T13:52:09.770Z,2.03
2019-03-21T13:54:40.727Z,2.17
2019-03-21T13:57:11.660Z,2.20
2019-03-21T13:59:42.553Z,2.60
2019-03-21T14:02:13.502Z,2.00
2019-03-21T14:04:44.410Z,2.60
2019-03-21T14:07:15.521Z,2.37
2019-03-21T14:09:46.434Z,2.57
2019-03-21T14:12:17.353Z,2.33
2019-03-21T14:14:48.269Z,2.70
2019-03-21T14:17:22.181Z,3.00
2019-03-21T14:19:51.806Z,2.43
2019-03-21T14:22:22.745Z,2.47
2019-03-21T14:24:53.650Z,2.33
2019-03-21T14:27:26.038Z,3.47
2019-03-21T14:30:01.530Z,2.83
2019-03-21T14:32:29.833Z,2.90
2019-03-21T14:35:00.806Z,2.67
2019-03-21T14:37:31.785Z,2.83
2019-03-21T14:40:02.688Z,3.60
2019-03-21T14:42:33.639Z,2.83
2019-03-21T14:45:05.805Z,3.40
2019-03-21T14:47:36.814Z,2.77
2019-03-21T14:50:08.518Z,3.63
2019-03-21T14:52:39.450Z,3.10
2019-03-21T14:55:11.234Z,3.60
2019-03-21T14:57:42.161Z,2.80
2019-03-21T15:00:18.513Z,2.97
2019-03-21T15:02:49.593Z,3.30
2019-03-21T15:05:20.527Z,2.97
2019-03-21T15:07:51.442Z,3.17
2019-03-21T15:10:22.336Z,3.20
2019-03-21T15:12:56.549Z,3.27
2019-03-21T15:15:27.448Z,2.60
2019-03-21T15:17:58.882Z,2.57
2019-03-21T15:20:29.891Z,2.90
2019-03-21T15:23:00.826Z,2.80
2019-03-21T15:25:31.792Z,3.03
2019-03-21T15:28:02.750Z,2.40
2019-03-21T15:30:33.674Z,2.90
2019-03-21T15:33:04.618Z,2.80
2019-03-21T15:35:35.573Z,2.40
2019-03-21T15:38:06.624Z,2.97
2019-03-21T15:40:37.565Z,2.70
2019-03-21T15:43:08.486Z,2.03
2019-03-21T15:45:39.417Z,2.80
2019-03-21T15:48:10.371Z,2.33
2019-03-21T15:50:41.310Z,2.07
2019-03-21T15:53:12.326Z,2.47
2019-03-21T15:55:43.274Z,2.40
2019-03-21T15:58:16.130Z,2.47
2019-03-21T16:00:47.392Z,2.17
2019-03-21T16:03:18.304Z,2.27
2019-03-21T16:05:49.401Z,2.30
2019-03-21T16:08:20.348Z,2.33
2019-03-21T16:10:51.309Z,2.10
2019-03-21T16:13:22.241Z,2.37
2019-03-21T16:15:53.215Z,1.90
2019-03-21T16:18:24.128Z,2.40
2019-03-21T16:20:55.077Z,2.27
2019-03-21T16:23:25.996Z,2.80
2019-03-21T16:25:56.950Z,1.87
2019-03-21T16:28:27.864Z,1.90
2019-03-21T16:30:58.823Z,2.17
2019-03-21T16:33:29.727Z,2.73
2019-03-21T16:36:00.714Z,1.93
2019-03-21T16:38:31.681Z,1.93
2019-03-21T16:41:02.642Z,2.23
2019-03-21T16:43:33.601Z,2.13
2019-03-21T16:46:04.571Z,2.77
2019-03-21T16:48:35.498Z,2.00
2019-03-21T16:51:06.485Z,2.23
2019-03-21T16:53:37.398Z,1.70
2019-03-21T16:56:08.355Z,2.30
2019-03-21T16:58:39.244Z,2.33
2019-03-21T17:01:10.221Z,2.20
2019-03-21T17:03:41.157Z,1.70
2019-03-21T17:06:12.145Z,2.53
2019-03-21T17:08:43.063Z,2.20
2019-03-21T17:11:14.022Z,1.90
2019-03-21T17:13:45.000Z,2.03
2019-03-21T17:16:15.913Z,2.37
2019-03-21T17:18:46.905Z,2.33
2019-03-21T17:21:17.962Z,2.17
2019-03-21T17:23:48.967Z,2.10
2019-03-21T17:26:19.900Z,2.00
2019-03-21T17:28:50.861Z,1.97
2019-03-21T17:31:21.770Z,1.90
2019-03-21T17:33:52.763Z,2.10
2019-03-21T17:36:23.701Z,1.47
2019-03-21T17:38:54.760Z,1.80
2019-03-21T17:41:25.677Z,2.10
2019-03-21T17:43:56.726Z,3.13
2019-03-21T17:46:27.711Z,3.47
2019-03-21T17:48:58.655Z,4.10
2019-03-21T17:51:29.601Z,2.90
2019-03-21T17:54:00.563Z,3.30
2019-03-21T17:56:31.473Z,2.70
2019-03-21T17:59:02.593Z,3.07
2019-03-21T18:01:33.577Z,2.47
2019-03-21T18:04:04.631Z,2.33
2019-03-21T18:06:35.534Z,1.73
2019-03-21T18:09:08.096Z,2.40
2019-03-21T18:11:39.142Z,1.97
2019-03-21T18:14:10.102Z,2.37
2019-03-21T18:16:41.018Z,2.23
2019-03-21T18:19:11.969Z,2.30
2019-03-21T18:21:42.880Z,2.40
2019-03-21T18:24:15.888Z,2.17
2019-03-21T18:26:46.846Z,2.50
2019-03-21T18:29:17.843Z,2.17
2019-03-21T18:31:48.810Z,2.60
2019-03-21T18:34:19.734Z,2.70
2019-03-21T18:36:50.765Z,2.60
2019-03-21T18:39:21.822Z,2.67
2019-03-21T18:41:52.773Z,2.50
2019-03-21T18:44:23.694Z,3.03
2019-03-21T18:46:54.610Z,2.73
2019-03-21T18:49:25.546Z,2.60
2019-03-21T18:51:56.530Z,3.23
2019-03-21T18:54:27.512Z,2.90
2019-03-21T18:56:58.442Z,2.90
2019-03-21T18:59:29.478Z,2.50
2019-03-21T19:02:00.492Z,2.90
2019-03-21T19:04:31.421Z,2.70
2019-03-21T19:07:02.470Z,3.30
2019-03-21T19:09:33.493Z,3.07
2019-03-21T19:12:04.606Z,3.10
2019-03-21T19:14:35.522Z,3.60
2019-03-21T19:17:06.463Z,4.03
2019-03-21T19:19:37.349Z,3.83
2019-03-21T19:22:08.384Z,3.63
2019-03-21T19:24:39.349Z,3.70
2019-03-21T19:27:10.362Z,3.90
2019-03-21T19:29:41.306Z,3.13
2019-03-21T19:32:12.302Z,3.40
2019-03-21T19:34:43.185Z,4.70
2019-03-21T19:37:14.269Z,3.43
2019-03-21T19:39:45.190Z,3.07
2019-03-21T19:42:16.142Z,3.07
2019-03-21T19:44:47.056Z,2.77
2019-03-21T19:47:24.318Z,3.43
2019-03-21T19:49:50.707Z,3.60
2019-03-21T19:52:21.747Z,3.03
2019-03-21T19:54:52.715Z,3.90
2019-03-21T19:57:23.681Z,3.10
2019-03-21T19:59:54.659Z,3.57
2019-03-21T20:02:25.574Z,2.97
2019-03-21T20:04:56.514Z,3.00
2019-03-21T20:07:27.573Z,3.17
2019-03-21T20:09:58.710Z,3.43
2019-03-21T20:12:29.790Z,3.73
2019-03-21T20:15:00.703Z,3.93
2019-03-21T20:17:31.677Z,3.30
2019-03-21T20:20:02.658Z,3.30
2019-03-21T20:22:33.577Z,4.20
2019-03-21T20:25:05.101Z,3.70
2019-03-21T20:27:36.061Z,3.97
2019-03-21T20:30:09.487Z,3.70
2019-03-21T20:32:40.447Z,4.17
2019-03-21T20:35:11.540Z,4.37
2019-03-21T20:37:42.499Z,3.70
2019-03-21T20:40:13.879Z,4.03
2019-03-21T20:42:44.834Z,4.00
2019-03-21T20:45:16.323Z,3.20
2019-03-21T20:47:47.252Z,3.27
2019-03-21T20:50:18.629Z,3.80
2019-03-21T20:52:49.588Z,3.70
2019-03-21T20:55:20.543Z,4.50
2019-03-21T20:57:51.460Z,4.17
2019-03-21T21:00:23.107Z,4.50
2019-03-21T21:02:55.425Z,4.28
2019-03-21T21:05:26.401Z,4.28
2019-03-21T21:07:57.326Z,3.60
2019-03-21T21:10:28.274Z,4.00
2019-03-21T21:12:59.240Z,4.30
2019-03-21T21:15:30.276Z,4.22
2019-03-21T21:18:01.238Z,4.92
2019-03-21T21:20:32.173Z,4.45
2019-03-21T21:23:03.143Z,4.35
2019-03-21T21:25:34.154Z,4.67
2019-03-21T21:28:05.125Z,4.00
2019-03-21T21:30:36.109Z,4.87
2019-03-21T21:33:07.266Z,4.95
2019-03-21T21:35:38.217Z,4.40
2019-03-21T21:38:09.270Z,5.50
2019-03-21T21:40:40.184Z,5.83
2019-03-21T21:43:11.121Z,6.33
2019-03-21T21:45:42.049Z,6.05
2019-03-21T21:48:13.052Z,6.65
2019-03-21T21:50:43.983Z,6.17
2019-03-21T21:53:15.315Z,6.40
2019-03-21T21:55:46.247Z,7.65
2019-03-21T21:58:17.158Z,9.65
2019-03-21T22:00:48.085Z,9.45
2019-03-21T22:03:19.050Z,9.65
2019-03-21T22:05:50.043Z,8.50
2019-03-21T22:08:21.063Z,7.15
2019-03-21T22:10:52.874Z,8.28
2019-03-21T22:13:23.831Z,7.37
2019-03-21T22:15:54.794Z,7.78
2019-03-21T22:18:25.719Z,6.58
2019-03-21T22:20:56.614Z,7.80
2019-03-21T22:23:27.650Z,7.60
2019-03-21T22:25:58.577Z,7.90
2019-03-21T22:28:29.511Z,6.55
2019-03-21T22:31:02.559Z,6.85
2019-03-21T22:33:33.609Z,7.25
2019-03-21T22:36:06.541Z,7.35
2019-03-21T22:38:37.322Z,5.97
2019-03-21T22:41:08.314Z,6.62
2019-03-21T22:43:39.197Z,6.37
2019-03-21T22:46:10.127Z,7.00
2019-03-21T22:48:41.106Z,7.10
2019-03-21T22:51:12.165Z,6.60
2019-03-21T22:53:44.473Z,6.62
2019-03-21T22:56:15.461Z,6.28
2019-03-21T22:58:46.438Z,7.03
2019-03-21T23:01:17.395Z,6.35
2019-03-21T23:03:48.363Z,7.17
2019-03-21T23:06:19.311Z,7.15
2019-03-21T23:08:50.287Z,6.78
2019-03-21T23:11:21.231Z,6.30
2019-03-21T23:13:52.143Z,5.58
2019-03-21T23:16:23.107Z,5.60
2019-03-21T23:18:54.134Z,5.80
2019-03-21T23:21:25.066Z,6.25
2019-03-21T23:23:55.962Z,6.45
2019-03-21T23:26:26.938Z,5.92
2019-03-21T23:28:57.817Z,5.60
2019-03-21T23:31:28.755Z,5.90
2019-03-21T23:33:59.666Z,5.83
2019-03-21T23:36:30.602Z,6.83
2019-03-21T23:39:01.521Z,6.65
2019-03-21T23:41:32.452Z,6.20
2019-03-21T23:44:03.366Z,7.78
2019-03-21T23:46:34.334Z,7.75
2019-03-21T23:49:05.261Z,7.58
2019-03-21T23:51:36.214Z,7.00
2019-03-21T23:54:07.126Z,6.42
2019-03-21T23:56:38.051Z,7.10
2019-03-21T23:59:08.995Z,6.78
